Time;durP1;ratioP1;P1;durP2;ratioP2;P2;SDS_P1;SDS_P2;PMS_P1;PMS_P2;Temp;Humidity;BMP_temperature;BMP_pressure;BME280_temperature;BME280_humidity;BME280_pressure;Samples;Min_cycle;Max_cycle;Signal;HPM_P1;HPM_P2
2023/10/11 00:01:01;;;;;;;11.10;4.43;;;;;;;-145.69;55.96;52028.53;5092937;28;20289;-81
2023/10/11 00:03:34;;;;;;;19.35;4.25;;;;;;;-145.69;55.94;52056.25;5092957;28;20212;-82
2023/10/11 00:06:04;;;;;;;11.85;3.72;;;;;;;-145.69;55.97;52076.03;5093084;28;20216;-81
2023/10/11 00:08:39;;;;;;;9.48;3.30;;;;;;;-145.69;55.57;52056.25;5092989;28;20224;-81
2023/10/11 00:11:08;;;;;;;13.32;4.85;;;;;;;-145.69;56.02;52060.22;5094075;28;20614;-81
2023/10/11 00:13:35;;;;;;;15.60;4.03;;;;;;;-145.69;55.90;52091.88;5093567;28;20206;-81
2023/10/11 00:16:07;;;;;;;10.17;3.60;;;;;;;-145.69;55.64;52032.47;5094331;28;20213;-81
2023/10/11 00:18:34;;;;;;;17.63;3.70;;;;;;;-145.69;55.75;52068.13;5092469;28;20237;-81
2023/10/11 00:21:09;;;;;;;15.77;3.83;;;;;;;-145.69;55.56;52048.31;5092564;28;20704;-81
2023/10/11 00:23:36;;;;;;;17.80;3.87;;;;;;;-145.69;55.59;52060.22;5094246;28;20231;-81
2023/10/11 00:26:03;;;;;;;17.85;3.75;;;;;;;-145.69;55.44;52060.22;5096098;28;20259;-80
2023/10/11 00:28:32;;;;;;;12.07;4.13;;;;;;;-145.69;55.34;52048.31;5096468;28;20201;-81
2023/10/11 00:31:00;;;;;;;9.57;4.20;;;;;;;-145.69;55.21;52036.44;5096035;28;20201;-81
2023/10/11 00:33:27;;;;;;;16.60;4.03;;;;;;;-145.69;55.03;52048.31;5096065;28;20289;-81
2023/10/11 00:35:55;;;;;;;17.05;3.97;;;;;;;-145.69;54.94;52062.19;5096300;28;20198;-80
2023/10/11 00:38:27;;;;;;;9.80;3.60;;;;;;;-145.69;55.38;52080.00;5096332;28;20198;-81
2023/10/11 00:41:07;;;;;;;15.77;3.83;;;;;;;-145.69;55.31;52091.88;5096084;28;20272;-81
2023/10/11 00:43:36;;;;;;;13.05;3.40;;;;;;;-145.69;55.05;52048.31;5094162;28;20649;-80
2023/10/11 00:46:05;;;;;;;12.57;3.53;;;;;;;-145.69;55.07;52064.16;5075698;28;20203;-81
2023/10/11 00:48:33;;;;;;;12.30;3.60;;;;;;;-145.69;55.76;52046.34;5093383;28;20202;-80
2023/10/11 00:51:00;;;;;;;8.20;3.70;;;;;;;-145.69;56.01;52068.13;5096068;28;20233;-81
2023/10/11 00:53:34;;;;;;;13.35;3.50;;;;;;;-145.69;55.82;52048.31;5096020;28;20198;-81
2023/10/11 00:56:02;;;;;;;14.90;3.97;;;;;;;-145.69;55.87;52050.31;5095519;28;20209;-81
2023/10/11 00:58:28;;;;;;;18.17;3.70;;;;;;;-145.69;55.34;52080.00;5095639;28;20560;-81
2023/10/11 01:00:56;;;;;;;13.53;4.07;;;;;;;-145.69;55.77;52074.06;5095368;28;20198;-81
2023/10/11 01:03:23;;;;;;;17.93;3.97;;;;;;;-145.69;56.25;52028.53;5095109;28;20201;-81
2023/10/11 01:05:50;;;;;;;11.60;3.40;;;;;;;-145.69;56.09;52052.28;5095122;28;20280;-81
2023/10/11 01:08:21;;;;;;;13.30;3.90;;;;;;;-145.69;55.60;52066.16;5095945;28;20296;-81
2023/10/11 01:10:47;;;;;;;12.00;3.65;;;;;;;-145.69;55.72;52056.25;5094901;28;20202;-81
2023/10/11 01:13:14;;;;;;;9.30;3.70;;;;;;;-145.69;56.06;52056.25;5095084;28;20194;-81
2023/10/11 01:15:42;;;;;;;16.50;3.95;;;;;;;-145.69;56.34;52076.03;5094793;28;20209;-81
2023/10/11 01:18:12;;;;;;;17.83;4.35;;;;;;;-145.69;56.30;52038.44;5095433;28;20552;-80
2023/10/11 01:20:40;;;;;;;14.95;3.85;;;;;;;-145.69;56.36;52048.31;5095356;28;20193;-81
2023/10/11 01:23:07;;;;;;;16.80;3.80;;;;;;;-145.69;56.50;52068.13;5095442;28;20234;-80
2023/10/11 01:25:34;;;;;;;13.32;3.70;;;;;;;-145.69;56.14;52054.25;5093989;28;20218;-81
2023/10/11 01:28:01;;;;;;;11.63;3.70;;;;;;;-145.69;56.18;52064.16;5095068;28;20194;-80
2023/10/11 01:30:27;;;;;;;15.67;3.77;;;;;;;-145.69;56.13;52091.88;5095057;28;20202;-81
2023/10/11 01:32:54;;;;;;;11.02;3.90;;;;;;;-145.69;56.07;52050.31;5095190;28;20194;-80
2023/10/11 01:35:21;;;;;;;12.65;4.40;;;;;;;-145.69;55.77;52062.19;5094661;28;20592;-81
2023/10/11 01:37:54;;;;;;;13.18;3.78;;;;;;;-145.69;55.80;52034.47;5095006;28;20202;-81
2023/10/11 01:40:24;;;;;;;16.27;3.42;;;;;;;-145.69;55.38;52046.34;5095238;28;20206;-81
2023/10/11 01:42:51;;;;;;;13.27;3.90;;;;;;;-145.69;55.46;52050.31;5094948;28;20601;-81
2023/10/11 01:45:19;;;;;;;15.73;3.93;;;;;;;-145.69;55.89;52068.13;5094389;28;20226;-81
2023/10/11 01:47:47;;;;;;;12.90;3.67;;;;;;;-145.69;55.63;52082.00;5095295;28;20201;-81
2023/10/11 01:50:15;;;;;;;16.40;3.97;;;;;;;-145.69;55.17;52052.28;5095488;28;20656;-82
2023/10/11 01:52:43;;;;;;;14.27;3.60;;;;;;;-145.69;55.19;52076.03;5095232;28;20202;-81
2023/10/11 01:55:11;;;;;;;14.53;3.10;;;;;;;-145.69;55.08;52058.22;5095168;28;20278;-81
2023/10/11 01:57:39;;;;;;;10.30;3.87;;;;;;;-145.69;55.14;52050.31;5095199;28;20198;-81
2023/10/11 02:00:13;;;;;;;15.25;3.65;;;;;;;-145.69;54.71;52056.25;5094338;28;20613;-81
2023/10/11 02:02:44;;;;;;;15.93;3.83;;;;;;;-145.69;54.83;52052.28;5095335;28;20561;-82
2023/10/11 02:05:12;;;;;;;15.95;3.88;;;;;;;-145.69;54.92;52024.56;5095265;28;20234;-81
2023/10/11 02:07:40;;;;;;;20.40;3.90;;;;;;;-145.69;55.04;52056.25;5075057;28;20285;-81
2023/10/11 02:10:11;;;;;;;13.83;3.73;;;;;;;-145.69;54.82;52076.03;5074487;28;20198;-81
2023/10/11 02:12:44;;;;;;;12.73;3.67;;;;;;;-145.69;55.56;52078.03;5074219;28;20256;-82
2023/10/11 02:15:12;;;;;;;12.63;3.95;;;;;;;-145.69;55.62;52099.81;5090149;28;20671;-81
2023/10/11 02:17:41;;;;;;;9.67;3.53;;;;;;;-145.69;55.59;52080.00;5094671;28;20951;-81
2023/10/11 02:20:15;;;;;;;15.17;3.73;;;;;;;-145.69;55.64;52099.81;5093957;28;20542;-81
2023/10/11 02:22:44;;;;;;;12.20;3.53;;;;;;;-145.69;55.46;52082.00;5094472;28;20227;-81
2023/10/11 02:25:15;;;;;;;15.93;3.33;;;;;;;-145.69;55.89;52109.72;5084872;28;20716;-81
2023/10/11 02:27:43;;;;;;;12.73;3.43;;;;;;;-145.69;55.62;52070.09;5074336;28;20673;-80
2023/10/11 02:30:21;;;;;;;16.93;3.90;;;;;;;-145.69;55.34;52056.25;5074138;28;20729;-81
2023/10/11 02:32:48;;;;;;;11.10;3.90;;;;;;;-145.69;55.02;52085.94;5073637;28;20665;-81
2023/10/11 02:35:17;;;;;;;9.83;3.77;;;;;;;-145.69;55.70;52062.19;5081369;28;20208;-81
2023/10/11 02:37:45;;;;;;;17.90;4.10;;;;;;;-145.69;55.65;52095.84;5075573;28;20195;-81
2023/10/11 02:40:16;;;;;;;7.73;3.47;;;;;;;-145.69;55.44;52052.28;5073761;28;20260;-81
2023/10/11 02:42:45;;;;;;;12.40;3.30;;;;;;;-145.69;55.49;52048.31;5073498;28;20272;-80
2023/10/11 02:45:13;;;;;;;9.60;3.47;;;;;;;-145.69;55.49;52099.81;5089076;28;20317;-81
2023/10/11 02:47:39;;;;;;;17.07;3.80;;;;;;;-145.69;55.56;52054.25;5093871;28;20233;-80
2023/10/11 02:50:08;;;;;;;17.30;3.87;;;;;;;-145.69;55.92;52062.19;5093628;28;20198;-80
2023/10/11 02:52:36;;;;;;;12.63;3.33;;;;;;;-145.69;55.43;52044.38;5093073;28;20665;-81
2023/10/11 02:55:21;;;;;;;11.93;3.33;;;;;;;-145.69;55.43;52064.16;5092892;28;20657;-81
2023/10/11 02:58:05;;;;;;;13.27;3.50;;;;;;;-145.69;54.86;52101.78;5093715;28;20202;-81
2023/10/11 03:00:33;;;;;;;16.53;3.80;;;;;;;-145.69;54.83;52064.16;5093677;28;20600;-81
2023/10/11 03:03:00;;;;;;;13.00;3.50;;;;;;;-145.69;55.11;52066.16;5093823;28;20591;-81
2023/10/11 03:05:28;;;;;;;12.67;3.80;;;;;;;-145.69;55.37;52064.16;5092960;28;20271;-80
2023/10/11 03:07:56;;;;;;;16.23;4.47;;;;;;;-145.69;55.74;52087.94;5093547;28;20449;-81
2023/10/11 03:10:22;;;;;;;18.73;4.50;;;;;;;-145.69;55.42;52036.44;5092918;28;20250;-80
2023/10/11 03:12:51;;;;;;;11.43;3.43;;;;;;;-145.69;55.00;52040.41;5093320;28;20209;-80
2023/10/11 03:15:20;;;;;;;14.43;3.30;;;;;;;-145.69;55.21;52078.03;5092656;28;20194;-81
2023/10/11 03:17:52;;;;;;;7.03;3.17;;;;;;;-145.69;55.29;52066.16;5093225;28;20284;-81
2023/10/11 03:20:28;;;;;;;13.63;3.90;;;;;;;-145.69;54.92;52085.94;5093362;28;20202;-80
2023/10/11 03:22:59;;;;;;;10.37;3.13;;;;;;;-145.69;55.06;52040.41;5092866;28;20280;-81
2023/10/11 03:25:29;;;;;;;15.77;4.10;;;;;;;-145.69;55.08;52087.94;5092735;28;20729;-81
2023/10/11 03:27:57;;;;;;;15.50;3.93;;;;;;;-145.69;54.61;52064.16;5093097;28;20229;-80
2023/10/11 03:30:24;;;;;;;9.27;3.33;;;;;;;-145.69;55.00;52111.69;5093223;28;20297;-81
2023/10/11 03:32:51;;;;;;;16.83;3.60;;;;;;;-145.69;55.42;52080.00;5093025;28;20198;-80
2023/10/11 03:35:19;;;;;;;17.97;4.40;;;;;;;-145.69;55.59;52087.94;5092896;28;20198;-80
2023/10/11 03:37:57;;;;;;;15.37;3.37;;;;;;;-145.69;55.67;52080.00;5093047;28;20205;-80
2023/10/11 03:40:34;;;;;;;13.07;3.60;;;;;;;-145.69;55.69;52105.75;5093244;28;20210;-82
2023/10/11 03:43:03;;;;;;;11.60;3.27;;;;;;;-145.69;55.44;52066.16;5092976;28;20200;-80
2023/10/11 03:45:34;;;;;;;15.73;3.57;;;;;;;-145.69;54.94;52062.19;5092252;28;20252;-80
2023/10/11 03:48:09;;;;;;;15.03;3.80;;;;;;;-145.69;55.66;52080.00;5093012;28;20229;-81
2023/10/11 03:50:37;;;;;;;14.13;3.70;;;;;;;-145.69;55.57;52064.16;5092660;28;20564;-80
2023/10/11 03:53:10;;;;;;;14.90;3.47;;;;;;;-145.69;55.44;52082.00;5092754;28;20247;-81
2023/10/11 03:55:45;;;;;;;19.50;4.37;;;;;;;-145.69;55.32;52109.72;5092540;28;20362;-80
2023/10/11 03:58:23;;;;;;;19.73;3.73;;;;;;;-145.69;55.16;52070.09;5095992;28;20233;-80
2023/10/11 04:00:50;;;;;;;12.27;3.60;;;;;;;-145.69;55.19;52052.28;5097290;28;20649;-81
2023/10/11 04:03:18;;;;;;;10.27;3.40;;;;;;;-145.69;55.11;52028.53;5096720;28;20204;-81
2023/10/11 04:05:47;;;;;;;17.43;3.70;;;;;;;-145.69;55.09;52064.16;5096708;28;20622;-81
2023/10/11 04:08:21;;;;;;;14.53;4.00;;;;;;;-145.69;55.14;52072.09;5097060;28;20205;-81
2023/10/11 04:10:49;;;;;;;19.13;3.00;;;;;;;-145.69;55.00;52064.16;5096988;28;20194;-80
2023/10/11 04:13:24;;;;;;;18.37;4.27;;;;;;;-145.69;55.17;52080.00;5096584;28;20556;-80
2023/10/11 04:15:52;;;;;;;14.80;4.37;;;;;;;-145.69;55.11;52064.16;5076446;28;20649;-81
2023/10/11 04:18:33;;;;;;;11.80;3.43;;;;;;;-145.69;55.16;52062.19;5076476;28;20202;-80
2023/10/11 04:21:14;;;;;;;14.77;4.07;;;;;;;-145.69;54.86;52046.34;5076775;28;20298;-80
2023/10/11 04:23:42;;;;;;;15.77;3.47;;;;;;;-145.69;55.13;52056.25;5088967;28;20613;-80
2023/10/11 04:26:22;;;;;;;14.63;3.80;;;;;;;-145.69;54.89;52068.13;5096295;28;20699;-80
2023/10/11 04:28:52;;;;;;;14.67;3.80;;;;;;;-145.69;54.77;52020.59;5093084;28;20229;-81
2023/10/11 04:31:28;;;;;;;21.17;3.70;;;;;;;-145.69;54.91;52060.22;5076478;28;20625;-81
2023/10/11 04:33:55;;;;;;;13.40;4.13;;;;;;;-145.69;54.36;52080.00;5075921;28;20204;-80
2023/10/11 04:36:21;;;;;;;19.23;4.43;;;;;;;-145.69;54.17;52093.88;5075736;28;20203;-80
2023/10/11 04:38:49;;;;;;;16.03;4.10;;;;;;;-145.69;54.66;52085.94;5075917;28;20240;-80
2023/10/11 04:41:16;;;;;;;9.60;3.00;;;;;;;-145.69;54.90;52091.88;5075679;28;20225;-80
2023/10/11 04:43:50;;;;;;;14.67;3.53;;;;;;;-145.69;54.60;52036.44;5078914;28;20205;-80
2023/10/11 04:46:21;;;;;;;14.07;3.80;;;;;;;-145.69;54.70;52068.13;5096326;28;20228;-81
2023/10/11 04:48:48;;;;;;;12.83;3.77;;;;;;;-145.69;54.92;52087.94;5096177;28;20205;-81
2023/10/11 04:51:23;;;;;;;10.10;3.40;;;;;;;-145.69;54.36;52064.16;5095970;28;20194;-80
2023/10/11 04:53:56;;;;;;;14.27;3.83;;;;;;;-145.69;53.82;52078.03;5095914;28;20201;-80
2023/10/11 04:59:11;;;;;;;11.93;3.67;;;;;;;-145.69;53.81;52091.88;5095852;28;20247;-81
2023/10/11 05:01:58;;;;;;;15.13;3.73;;;;;;;-145.69;53.45;52066.16;5096276;28;20281;-81
2023/10/11 05:04:27;;;;;;;9.20;3.07;;;;;;;-145.69;53.75;52064.16;5096700;28;20316;-81
2023/10/11 05:06:55;;;;;;;15.83;3.67;;;;;;;-145.69;53.83;52062.19;5095509;28;20233;-80
2023/10/11 05:09:29;;;;;;;13.60;3.57;;;;;;;-145.69;54.36;52085.94;5094769;28;20202;-80
2023/10/11 05:12:09;;;;;;;13.30;4.13;;;;;;;-145.69;54.34;52083.97;5095742;28;20208;-81
2023/10/11 05:14:39;;;;;;;9.27;3.43;;;;;;;-145.69;54.12;52076.03;5095303;28;20271;-81
2023/10/11 05:17:32;;;;;;;11.43;4.00;;;;;;;-145.69;54.72;52072.09;5095327;28;20587;-81
2023/10/11 05:20:20;;;;;;;13.37;3.63;;;;;;;-145.69;55.21;52105.75;5095840;28;20710;-81
2023/10/11 05:22:49;;;;;;;14.73;3.93;;;;;;;-145.69;54.86;52103.78;5095493;28;20210;-82
2023/10/11 05:25:38;;;;;;;19.77;3.57;;;;;;;-145.69;54.93;52087.94;5095565;28;20208;-80
2023/10/11 05:31:06;;;;;;;15.00;3.33;;;;;;;-145.69;54.64;52054.25;5095228;28;20209;-80
2023/10/11 05:33:44;;;;;;;8.80;3.33;;;;;;;-145.69;54.48;52054.25;5095113;28;20556;-81
2023/10/11 05:36:17;;;;;;;13.27;3.77;;;;;;;-145.69;54.04;52080.00;5095169;28;20209;-81
2023/10/11 05:52:26;;;;;;;11.70;3.60;;;;;;;-145.69;53.22;52089.91;5094687;28;20201;-80
2023/10/11 05:54:54;;;;;;;17.70;3.90;;;;;;;-145.69;53.75;52083.97;5094511;28;20194;-80
2023/10/11 05:57:23;;;;;;;11.13;3.37;;;;;;;-145.69;54.22;52091.88;5080736;28;20649;-81
2023/10/11 05:59:50;;;;;;;17.07;3.40;;;;;;;-145.69;55.52;52095.84;5094665;28;20292;-80
2023/10/11 06:02:18;;;;;;;13.30;3.53;;;;;;;-145.69;55.16;52072.09;5094631;28;20198;-81
2023/10/11 06:04:47;;;;;;;12.90;3.57;;;;;;;-145.69;54.84;52076.03;5094706;28;20209;-80
2023/10/11 06:07:15;;;;;;;17.27;3.50;;;;;;;-145.69;55.03;52076.03;5094450;28;20224;-80
2023/10/11 06:09:45;;;;;;;11.90;3.10;;;;;;;-145.69;55.03;52074.06;5094063;28;20199;-81
2023/10/11 06:12:23;;;;;;;15.97;3.23;;;;;;;-145.69;55.39;52107.72;5094429;28;20573;-80
2023/10/11 06:14:50;;;;;;;12.47;3.60;;;;;;;-145.69;54.98;52091.88;5094362;28;20202;-80
2023/10/11 06:17:21;;;;;;;17.40;3.57;;;;;;;-145.69;54.72;52087.94;5095565;28;20202;-80
2023/10/11 06:19:53;;;;;;;11.43;3.30;;;;;;;-145.69;54.85;52115.66;5092928;28;20225;-80
2023/10/11 06:22:21;;;;;;;10.43;3.50;;;;;;;-145.69;55.11;52068.13;5073900;28;20683;-80
2023/10/11 06:24:48;;;;;;;18.63;3.80;;;;;;;-145.69;54.61;52103.78;5083234;28;20254;-80
2023/10/11 06:30:06;;;;;;;17.57;3.17;;;;;;;-145.69;55.09;52076.03;5068201;28;20190;-80
2023/10/11 06:32:31;;;;;;;14.03;3.60;;;;;;;-145.69;55.43;52074.06;5094272;28;20202;-80
2023/10/11 06:34:59;;;;;;;21.43;3.80;;;;;;;-145.69;55.16;52082.00;5096092;28;20273;-81
2023/10/11 06:37:26;;;;;;;13.65;3.53;;;;;;;-145.69;55.57;52050.31;5095834;28;20761;-81
2023/10/11 06:42:37;;;;;;;20.67;4.03;;;;;;;-145.69;55.77;52080.00;5096287;28;20267;-81
2023/10/11 06:45:05;;;;;;;12.93;3.72;;;;;;;-145.69;56.41;52080.00;5096192;28;20202;-80
2023/10/11 06:47:33;;;;;;;13.45;3.47;;;;;;;-145.69;56.83;52074.06;5093892;28;20236;-80
2023/10/11 06:50:10;;;;;;;13.13;3.60;;;;;;;-145.69;56.64;52034.47;5094074;28;20552;-80
2023/10/11 06:52:42;;;;;;;17.77;3.50;;;;;;;-145.69;57.20;52068.13;5093753;28;20721;-80
2023/10/11 06:55:14;;;;;;;16.47;4.33;;;;;;;-145.69;58.18;52052.28;5092373;28;20800;-81
2023/10/11 06:57:40;;;;;;;21.38;3.83;;;;;;;-145.69;57.25;52056.25;5093959;28;20456;-81
2023/10/11 07:00:12;;;;;;;11.95;4.35;;;;;;;-145.69;56.80;52052.28;5093835;28;20214;-81
2023/10/11 07:02:47;;;;;;;11.75;4.05;;;;;;;-145.69;57.30;52054.25;5093748;28;20552;-80
2023/10/11 07:05:19;;;;;;;17.58;4.35;;;;;;;-145.69;56.82;52083.97;5093289;28;20665;-80
2023/10/11 07:07:48;;;;;;;11.48;3.50;;;;;;;-145.69;56.15;52064.16;5090345;28;20842;-80
2023/10/11 07:10:28;;;;;;;13.13;3.50;;;;;;;-145.69;56.32;52093.88;5091572;28;20644;-81
2023/10/11 07:13:04;;;;;;;18.95;3.67;;;;;;;-145.69;56.28;52070.09;5092802;28;20254;-80
2023/10/11 07:15:38;;;;;;;8.10;3.20;;;;;;;-145.69;55.64;52056.25;5092944;28;20209;-80
2023/10/11 07:18:08;;;;;;;10.85;3.25;;;;;;;-145.69;56.29;52083.97;5092839;28;20202;-81
2023/10/11 07:20:48;;;;;;;11.38;3.35;;;;;;;-145.69;56.67;52052.28;5094284;28;20285;-80
2023/10/11 07:23:19;;;;;;;15.90;4.38;;;;;;;-145.69;56.32;52080.00;5093566;28;20233;-80
2023/10/11 07:25:59;;;;;;;17.83;3.75;;;;;;;-145.69;56.85;52044.38;5095132;28;20658;-81
2023/10/11 07:28:35;;;;;;;14.05;3.22;;;;;;;-145.69;56.40;52036.44;5094416;28;20202;-81
2023/10/11 07:31:03;;;;;;;18.17;3.53;;;;;;;-145.69;56.22;52040.41;5096059;28;20284;-80
2023/10/11 07:33:29;;;;;;;15.35;3.67;;;;;;;-145.69;56.25;52050.31;5094652;28;20208;-80
2023/10/11 07:35:59;;;;;;;15.75;3.65;;;;;;;-145.69;55.53;52008.72;5094777;28;20201;-80
2023/10/11 07:38:32;;;;;;;17.88;4.10;;;;;;;-145.69;55.59;52064.16;5096715;28;20210;-81
2023/10/11 07:41:04;;;;;;;15.68;3.83;;;;;;;-145.69;55.26;52004.75;5099434;28;20197;-81
2023/10/11 07:43:32;;;;;;;19.58;3.88;;;;;;;-145.69;55.72;52032.47;5096760;28;20205;-80
2023/10/11 07:45:59;;;;;;;21.08;3.00;;;;;;;-145.69;55.06;52056.25;5097510;28;20222;-81
2023/10/11 07:48:29;;;;;;;9.52;3.20;;;;;;;-145.69;54.65;52020.59;5099154;28;20206;-81
2023/10/11 07:51:03;;;;;;;13.82;3.58;;;;;;;-145.69;54.86;52024.56;5098433;28;20202;-81
2023/10/11 07:53:29;;;;;;;12.32;3.45;;;;;;;-145.69;54.87;52020.59;5096923;28;20196;-81
2023/10/11 07:55:58;;;;;;;13.70;3.55;;;;;;;-145.69;54.96;52012.69;5101157;28;20202;-81
2023/10/11 07:58:32;;;;;;;11.85;3.30;;;;;;;-145.69;55.09;52034.47;5102621;28;20209;-81
2023/10/11 08:01:02;;;;;;;13.77;3.75;;;;;;;-145.69;54.91;52036.44;5103713;28;20231;-81
2023/10/11 08:03:34;;;;;;;12.90;3.78;;;;;;;-145.69;54.97;52056.25;5101447;28;20190;-81
2023/10/11 08:06:05;;;;;;;12.20;3.60;;;;;;;-145.69;54.43;52024.56;5098398;28;20304;-81
2023/10/11 08:08:32;;;;;;;12.32;3.03;;;;;;;-145.69;54.13;52028.53;5097188;28;20209;-81
2023/10/11 08:11:06;;;;;;;10.45;3.35;;;;;;;-145.69;53.79;52024.56;5097804;28;20253;-80
2023/10/11 08:13:32;;;;;;;14.30;3.05;;;;;;;-145.69;53.27;52008.72;5084219;28;20242;-81
2023/10/11 08:15:59;;;;;;;14.77;3.10;;;;;;;-145.69;52.77;52008.72;5081347;28;20535;-81
2023/10/11 08:18:26;;;;;;;8.90;2.83;;;;;;;-145.69;52.67;52028.53;5083198;28;20262;-81
2023/10/11 08:20:52;;;;;;;11.00;2.92;;;;;;;-145.69;52.40;52012.69;5084759;28;20210;-81
2023/10/11 08:23:29;;;;;;;7.97;2.92;;;;;;;-145.69;51.86;52022.59;5081637;28;20242;-81
2023/10/11 08:25:56;;;;;;;9.80;3.03;;;;;;;-145.69;51.33;52056.25;5091878;28;20289;-81
2023/10/11 08:28:28;;;;;;;10.77;2.60;;;;;;;-145.69;50.04;52008.72;5102139;28;20198;-82
2023/10/11 08:30:57;;;;;;;12.55;2.97;;;;;;;-145.69;50.23;51981.00;5102591;28;20202;-81
2023/10/11 08:33:25;;;;;;;11.52;2.50;;;;;;;-145.69;49.72;52000.81;5101879;28;20198;-81
2023/10/11 08:35:53;;;;;;;11.80;2.80;;;;;;;-145.69;49.32;52004.75;5102692;28;20269;-81
2023/10/11 08:38:24;;;;;;;14.63;2.78;;;;;;;-145.69;48.19;52020.59;5096843;28;20695;-82
2023/10/11 08:40:57;;;;;;;18.50;3.88;;;;;;;-145.69;48.18;51986.94;5095525;28;20323;-81
2023/10/11 08:43:24;;;;;;;9.65;2.70;;;;;;;-145.69;46.87;52002.78;5097730;28;20218;-81
2023/10/11 08:45:59;;;;;;;13.55;3.15;;;;;;;-145.69;44.84;51967.13;5105832;28;20202;-81
2023/10/11 08:48:26;;;;;;;9.75;2.28;;;;;;;-145.69;44.82;51967.13;5105515;28;20255;-81
2023/10/11 08:50:54;;;;;;;11.07;2.90;;;;;;;-145.69;44.03;51969.13;5107078;28;20645;-81
2023/10/11 08:53:22;;;;;;;10.45;2.58;;;;;;;-145.69;43.40;51975.06;5108865;28;20198;-81
2023/10/11 08:55:54;;;;;;;8.38;2.70;;;;;;;-145.69;42.28;51941.41;5116079;28;20182;-81
2023/10/11 08:58:27;;;;;;;9.68;2.70;;;;;;;-145.69;40.37;51984.97;5114338;28;20202;-82
2023/10/11 09:00:55;;;;;;;17.20;2.83;;;;;;;-145.69;41.52;51975.06;5113990;28;20178;-81
2023/10/11 09:03:23;;;;;;;9.98;3.30;;;;;;;-145.69;38.37;51953.28;5109473;28;20191;-81
2023/10/11 09:05:58;;;;;;;12.73;2.70;;;;;;;-145.69;38.12;51977.03;5093394;28;20259;-81
2023/10/11 09:08:31;;;;;;;10.48;2.55;;;;;;;-145.69;38.54;51923.56;5096399;28;20197;-81
2023/10/11 09:11:15;;;;;;;14.25;2.80;;;;;;;-145.69;37.96;51949.31;5100812;28;20228;-81
2023/10/11 09:13:42;;;;;;;8.90;3.00;;;;;;;-145.69;37.53;51921.59;5101499;28;20198;-82
2023/10/11 09:16:12;;;;;;;20.50;2.83;;;;;;;-145.69;37.75;51927.53;5101330;28;20194;-81
2023/10/11 09:18:39;;;;;;;12.95;2.95;;;;;;;-145.69;38.34;51939.41;5100088;28;20229;-82
2023/10/11 09:21:15;;;;;;;10.50;2.60;;;;;;;-145.69;37.44;51901.78;5099543;28;20194;-82
2023/10/11 09:23:46;;;;;;;12.35;3.30;;;;;;;-145.69;37.73;51925.56;5104052;28;20257;-82
2023/10/11 09:26:20;;;;;;;12.65;3.08;;;;;;;-145.69;36.30;51911.69;5100396;28;20612;-82
2023/10/11 09:28:56;;;;;;;8.82;2.65;;;;;;;-145.69;36.24;51915.66;5101337;28;20202;-82
2023/10/11 09:31:24;;;;;;;11.65;2.55;;;;;;;-145.69;36.27;51874.06;5100411;28;20239;-82
2023/10/11 09:33:51;;;;;;;14.88;2.72;;;;;;;-145.69;33.44;51889.91;5098772;28;20206;-81
2023/10/11 09:36:24;;;;;;;12.63;2.35;;;;;;;-145.69;34.46;51919.63;5098069;28;20275;-82
2023/10/11 09:38:55;;;;;;;13.02;2.53;;;;;;;-145.69;34.98;51895.84;5100148;28;20611;-82
2023/10/11 09:41:25;;;;;;;11.75;2.70;;;;;;;-145.69;34.72;51852.28;5103039;28;20206;-82
2023/10/11 09:43:57;;;;;;;11.52;2.30;;;;;;;-145.69;33.79;51885.94;5099578;28;20198;-83
2023/10/11 09:46:29;;;;;;;8.05;2.63;;;;;;;-145.69;33.24;51905.75;5096794;28;20208;-82
2023/10/11 09:48:56;;;;;;;11.73;2.38;;;;;;;-145.69;33.01;51878.03;5097298;28;20202;-82
2023/10/11 09:51:25;;;;;;;10.90;3.00;;;;;;;-145.69;34.16;51889.91;5104375;28;20267;-82
2023/10/11 09:53:56;;;;;;;11.30;2.55;;;;;;;-145.69;33.72;51874.06;5103833;28;20201;-82
2023/10/11 09:56:37;;;;;;;8.52;2.25;;;;;;;-145.69;33.71;51887.94;5104962;28;20205;-83
2023/10/11 09:59:29;;;;;;;9.50;2.67;;;;;;;-145.69;32.79;51901.78;5098830;28;20209;-83
2023/10/11 10:02:04;;;;;;;12.02;2.70;;;;;;;-145.69;32.01;51891.88;5096754;28;20204;-82
2023/10/11 10:05:04;;;;;;;13.57;3.45;;;;;;;-145.69;32.10;51895.84;5097298;28;20526;-82
2023/10/11 10:07:42;;;;;;;7.45;2.30;;;;;;;-145.69;32.48;51895.84;5094832;28;20240;-83
2023/10/11 10:10:12;;;;;;;15.40;2.90;;;;;;;-145.69;33.54;51854.28;5098253;28;20198;-82
2023/10/11 10:12:41;;;;;;;7.90;2.45;;;;;;;-145.69;31.84;51885.94;5095513;28;20255;-83
2023/10/11 10:15:08;;;;;;;12.20;2.33;;;;;;;-145.69;32.33;51860.22;5097569;28;20238;-83
2023/10/11 10:17:35;;;;;;;13.90;3.35;;;;;;;-145.69;32.74;51854.28;5096314;28;20293;-84
2023/10/11 10:20:38;;;;;;;12.85;2.95;;;;;;;-145.69;31.42;51860.22;5095132;28;20657;-82
2023/10/11 10:23:32;;;;;;;20.35;2.92;;;;;;;-145.69;33.12;51878.03;5081681;28;20234;-82
2023/10/11 10:26:41;;;;;;;11.23;2.42;;;;;;;-145.69;32.38;51862.19;5074470;28;20553;-82
2023/10/11 10:29:12;;;;;;;7.13;2.50;;;;;;;-145.69;32.83;51848.34;5075664;28;20202;-82
2023/10/11 10:32:08;;;;;;;12.10;2.95;;;;;;;-145.69;33.56;51880.00;5084969;28;20300;-82
2023/10/11 10:34:41;;;;;;;7.97;2.67;;;;;;;-145.69;33.31;51852.28;5100160;28;20200;-83
2023/10/11 10:37:08;;;;;;;13.82;2.70;;;;;;;-145.69;33.44;51842.38;5094902;28;20199;-82
2023/10/11 10:39:46;;;;;;;12.27;2.70;;;;;;;-145.69;33.78;51862.19;5097233;28;20209;-82
2023/10/11 10:42:15;;;;;;;14.73;3.75;;;;;;;-145.69;32.76;51854.28;5097624;28;20280;-82
2023/10/11 10:44:54;;;;;;;16.05;3.17;;;;;;;-145.69;32.91;51840.41;5095588;28;20661;-82
2023/10/11 10:47:24;;;;;;;12.32;2.65;;;;;;;-145.69;32.08;51826.56;5094953;28;20224;-82
2023/10/11 10:49:54;;;;;;;13.63;2.65;;;;;;;-145.69;32.17;51860.22;5094795;28;20538;-83
2023/10/11 10:52:21;;;;;;;11.52;2.90;;;;;;;-145.69;32.19;51842.38;5094238;28;20197;-82
2023/10/11 10:55:02;;;;;;;15.27;2.78;;;;;;;-145.69;32.00;51838.44;5095238;28;20210;-82
2023/10/11 10:57:31;;;;;;;8.25;2.67;;;;;;;-145.69;32.02;51856.25;5095455;28;20205;-83
2023/10/11 11:00:00;;;;;;;10.43;2.40;;;;;;;-145.69;32.37;51854.28;5099149;28;20198;-83
2023/10/11 11:02:26;;;;;;;12.63;2.63;;;;;;;-145.69;32.48;51883.97;5095721;28;20263;-82
2023/10/11 11:04:52;;;;;;;13.18;2.60;;;;;;;-145.69;33.12;51842.38;5097670;28;20206;-82
2023/10/11 11:07:23;;;;;;;7.47;2.58;;;;;;;-145.69;33.56;51830.50;5097978;28;20324;-83
2023/10/11 11:09:54;;;;;;;18.10;2.78;;;;;;;-145.69;32.76;51850.31;5098834;28;20213;-83
2023/10/11 11:12:28;;;;;;;19.10;2.97;;;;;;;-145.69;32.56;51844.38;5098701;28;20288;-83
2023/10/11 11:14:54;;;;;;;8.57;2.80;;;;;;;-145.69;32.44;51830.50;5098002;28;20541;-83
2023/10/11 11:17:24;;;;;;;7.93;2.53;;;;;;;-145.69;31.94;51826.56;5095612;28;20636;-83
2023/10/11 11:20:12;;;;;;;13.52;2.72;;;;;;;-145.69;33.15;51846.34;5097947;28;20194;-83
2023/10/11 11:22:39;;;;;;;12.40;2.88;;;;;;;-145.69;32.04;51850.31;5095023;28;20247;-82
2023/10/11 11:25:27;;;;;;;12.45;2.60;;;;;;;-145.69;31.66;51836.44;5094121;28;20202;-83
2023/10/11 11:28:06;;;;;;;10.52;2.85;;;;;;;-145.69;31.21;51834.47;5094115;28;20227;-82
2023/10/11 11:30:36;;;;;;;8.05;2.60;;;;;;;-145.69;31.63;51828.53;5097188;28;20557;-82
2023/10/11 11:33:13;;;;;;;13.55;2.75;;;;;;;-145.69;31.97;51858.22;5093342;28;20224;-82
2023/10/11 11:35:44;;;;;;;6.32;2.25;;;;;;;-145.69;32.79;51842.38;5094538;28;20194;-83
2023/10/11 11:38:20;;;;;;;11.38;2.63;;;;;;;-145.69;32.83;51842.38;5097272;28;20263;-82
2023/10/11 11:40:47;;;;;;;7.32;2.92;;;;;;;-145.69;32.95;51830.50;5094984;28;20200;-82
2023/10/11 11:43:16;;;;;;;11.23;2.47;;;;;;;-145.69;32.30;51856.25;5094632;28;20202;-81
2023/10/11 11:45:42;;;;;;;10.95;3.10;;;;;;;-145.69;32.63;51802.78;5089129;28;20217;-82
2023/10/11 11:48:10;;;;;;;7.50;2.40;;;;;;;-145.69;32.53;51814.66;5092127;28;20225;-82
2023/10/11 11:50:37;;;;;;;8.55;2.75;;;;;;;-145.69;32.71;51830.50;5092691;28;20530;-83
2023/10/11 11:53:05;;;;;;;12.30;3.00;;;;;;;-145.69;32.44;51832.50;5092829;28;20201;-83